Sunday, October 21, 2018, 6:29 AM EDT
Back to Local

KMTP, Montauk Airport

Location: Montauk, NY, United States Lat: 41.067
Local Time: 6:29 AM EDT (10:29 GMT) Lon: -71.917
Time Zone: US/Eastern Elev: 6 ft

Show me the last for .
Show Coded

Time T Td Feel RH Dir Speed Gust Alt SLP Vis Weather Sky Remarks
2018-10-21 05:54 52 42 - 68 350° 16 25 29.61 29.61 0 None
2018-10-21 04:54 52 43 - 71 360° 12 - 29.58 29.57 0 None
2018-10-21 03:54 53 46 - 76 340° 12 - 29.57 29.57 0 None
2018-10-21 02:54 50 48 49 92 Variable 3 - 29.56 29.56 0 None
2018-10-21 01:54 48 47 - 96 - Calm - 29.57 29.57 0 6-hr Min Temp (2am): 45.0°F
6-hr Max Temp (2am): 57.9°F
2018-10-21 00:54 45 44 - 96 - Calm - 29.59 29.58 0 24-hr Min Temp (1am): 45.0°F
24-hr Max Temp (1am): 62.1°F
2018-10-20 23:54 46 45 - 95 - Calm - 29.62 29.62 0 None
2018-10-20 22:54 47 46 - 96 - Calm - 29.63 29.63 0 None
2018-10-20 21:54 51 48 - 89 - Calm - 29.63 29.62 0 None
2018-10-20 20:54 58 49 - 71 290° 7 - 29.62 29.61 0 None
2018-10-20 19:54 56 49 - 77 Variable 5 - 29.62 29.62 0 6-hr Min Temp (8pm): 55.9°F
6-hr Max Temp (8pm): 61.0°F
2018-10-20 18:54 58 49 - 71 240° 3 - 29.61 29.61 0 None
2018-10-20 17:54 60 49 - 66 260° 8 - 29.60 29.60 0 None
2018-10-20 16:54 61 50 - 67 270° 10 18 29.60 29.60 0 None
2018-10-20 15:54 61 50 - 67 260° 8 16 29.62 29.62 0 None
2018-10-20 14:54 60 51 - 72 270° 10 21 29.63 29.63 0 None
2018-10-20 13:54 60 51 - 72 260° 13 26 29.66 29.66 0 6-hr Min Temp (2pm): 57.9°F
6-hr Max Temp (2pm): 62.1°F
2018-10-20 12:54 61 52 - 72 260° 13 21 29.68 29.68 0 None
2018-10-20 11:54 62 52 - 69 270° 14 21 29.70 29.70 0 None
2018-10-20 10:54 60 53 - 77 250° 8 16 29.72 29.72 0 None
2018-10-20 09:54 60 54 - 80 250° 14 21 29.75 29.75 0 None
2018-10-20 08:54 59 55 - 86 240° 13 21 29.76 29.76 0 None
2018-10-20 07:54 58 52 - 80 240° 9 - 29.76 29.75 0 6-hr Precip Total (8am): 0.02"
24-hr Precip Total (8am): 0.02"
6-hr Min Temp (8am): 55.9°F
6-hr Max Temp (8am): 62.1°F
2018-10-20 06:54 57 54 - 89 250° 9 18 29.77 29.77 0 1-hr Precip Total: 0.01"

Support USWX by starting your Amazon purchase here.